Cairo, Missouri
Current Conditions -  °F | °C
As of 10:35 AM on Friday 31 Oct 2014 (Local Time) from KVER Reporting Station
Clear Clear  
Wind Chill: 31°   Ceiling: Unl
Heat Index: 40°   Visibility: 10mi
Dew Point: 18°   Wind: 16mph
Humidity: 42%   Direction: 330°NNW
Pressure: 30.41"   Gusts: 22mph
Location:  39.51°N, 92.44°W
Report Text: KVER 311535Z AUTO 33014G19KT 10SM CLR 04/M08 A3041 RMK AO2 T00421077
Loading
Personal Weather Stations






























Interactive Weather Map
Tropical Storm Tracking
New forecast layout! Learn more

10-Day Weather Forecast

Advertisements
Track Severe Weather on mobile